Time;durP1;ratioP1;P1;durP2;ratioP2;P2;SDS_P1;SDS_P2;PMS_P1;PMS_P2;Temp;Humidity;BMP_temperature;BMP_pressure;BME280_temperature;BME280_humidity;BME280_pressure;Samples;Min_cycle;Max_cycle;Signal;HPM_P1;HPM_P2
2021/06/21 00:01:08;;;;;;;27.07;5.33;;;;;;;18.63;100.00;100841.24;1706635;82;20988;-81
2021/06/21 00:03:37;;;;;;;25.82;6.40;;;;;;;18.61;100.00;100840.55;1742188;82;20952;-81
2021/06/21 00:06:03;;;;;;;24.20;4.53;;;;;;;18.60;100.00;100837.59;1742289;82;20935;-81
2021/06/21 00:08:30;;;;;;;26.15;4.15;;;;;;;18.60;100.00;100842.85;1742372;82;21107;-80
2021/06/21 00:10:58;;;;;;;27.65;4.80;;;;;;;18.60;100.00;100837.59;1742203;82;20999;-81
2021/06/21 00:13:25;;;;;;;20.70;4.55;;;;;;;18.57;100.00;100832.12;1742153;82;21094;-81
2021/06/21 00:15:53;;;;;;;22.07;5.05;;;;;;;18.57;100.00;100827.38;1742507;82;20959;-81
2021/06/21 00:18:21;;;;;;;21.52;4.47;;;;;;;18.55;100.00;100822.27;1742461;82;21010;-80
2021/06/21 00:20:51;;;;;;;22.93;4.70;;;;;;;18.55;100.00;100826.20;1742478;82;20841;-80
2021/06/21 00:23:18;;;;;;;28.62;5.15;;;;;;;18.51;100.00;100823.52;1742056;82;20852;-81
2021/06/21 00:25:47;;;;;;;24.50;5.35;;;;;;;18.47;100.00;100827.41;1742232;82;21042;-81
2021/06/21 00:28:15;;;;;;;18.45;4.15;;;;;;;18.45;100.00;100830.17;1742233;82;21454;-81
2021/06/21 00:30:44;;;;;;;16.15;4.10;;;;;;;18.45;100.00;100831.97;1742125;82;20936;-81
2021/06/21 00:33:11;;;;;;;20.70;4.60;;;;;;;18.45;100.00;100831.97;1732720;82;21077;-81
2021/06/21 00:35:37;;;;;;;23.05;4.95;;;;;;;18.45;100.00;100833.28;1731903;82;21420;-81
2021/06/21 00:38:05;;;;;;;18.60;4.72;;;;;;;18.45;100.00;100833.28;1731926;82;21074;-80
2021/06/21 00:40:34;;;;;;;24.10;5.00;;;;;;;18.44;100.00;100827.70;1732128;82;20948;-80
2021/06/21 00:43:02;;;;;;;27.50;5.12;;;;;;;18.44;100.00;100825.88;1732367;82;21004;-80
2021/06/21 00:45:29;;;;;;;15.28;4.72;;;;;;;18.43;100.00;100820.79;1732190;82;21107;-81
2021/06/21 00:47:55;;;;;;;18.90;5.10;;;;;;;18.39;100.00;100824.67;1732270;82;20964;-81
2021/06/21 00:50:25;;;;;;;15.10;4.35;;;;;;;18.34;100.00;100821.20;1732333;82;20985;-81
2021/06/21 00:52:55;;;;;;;10.88;4.40;;;;;;;18.28;100.00;100822.27;1732390;82;21058;-81
2021/06/21 00:55:22;;;;;;;11.75;4.42;;;;;;;18.23;100.00;100825.32;1705293;82;21007;-81
2021/06/21 00:57:49;;;;;;;21.62;4.95;;;;;;;18.20;100.00;100818.22;1732593;82;21084;-80
2021/06/21 01:00:25;;;;;;;23.40;5.05;;;;;;;18.20;100.00;100816.91;1732054;82;21369;-83
2021/06/21 01:02:51;;;;;;;31.68;6.42;;;;;;;18.19;100.00;100812.12;1732420;82;21015;-82
2021/06/21 01:05:25;;;;;;;31.10;4.53;;;;;;;18.22;100.00;100808.41;1732274;82;20912;-80
2021/06/21 01:07:52;;;;;;;21.00;5.33;;;;;;;18.23;100.00;100806.94;1732502;82;21095;-80
2021/06/21 01:10:23;;;;;;;16.12;3.80;;;;;;;18.26;100.00;100807.12;1732313;82;21115;-81
2021/06/21 01:13:04;;;;;;;20.10;4.37;;;;;;;18.27;100.00;100811.41;1732587;82;21453;-80
2021/06/21 01:15:34;;;;;;;16.77;4.10;;;;;;;18.29;100.00;100814.70;1732367;82;20971;-81
2021/06/21 01:18:24;;;;;;;25.05;4.12;;;;;;;18.30;100.00;100813.26;1732316;82;20941;-80
2021/06/21 01:21:31;;;;;;;22.87;5.33;;;;;;;18.33;100.00;100812.97;1732380;82;20857;-82
2021/06/21 01:24:37;;;;;;;14.85;4.85;;;;;;;18.35;100.00;100808.86;1732424;82;21101;-80
2021/06/21 01:27:42;;;;;;;27.07;4.53;;;;;;;18.38;100.00;100819.07;1732161;82;20893;-80
2021/06/21 01:30:13;;;;;;;26.40;4.92;;;;;;;18.42;100.00;100813.88;1719376;82;20932;-81
2021/06/21 01:32:48;;;;;;;27.73;5.67;;;;;;;18.46;100.00;100820.02;1738091;82;20956;-80
2021/06/21 01:35:26;;;;;;;26.07;6.30;;;;;;;18.50;100.00;100821.89;1742394;82;21063;-81
2021/06/21 01:37:54;;;;;;;31.77;5.72;;;;;;;18.53;100.00;100818.96;1732614;82;21127;-79
2021/06/21 01:40:21;;;;;;;25.55;5.62;;;;;;;18.57;100.00;100821.61;1742475;82;21058;-82
2021/06/21 01:42:53;;;;;;;32.88;5.12;;;;;;;18.61;100.00;100819.52;1742468;82;20888;-80
2021/06/21 01:45:20;;;;;;;;;;;;;;;18.61;100.00;100824.29;1744697;82;21098;-80
2021/06/21 01:47:48;;;;;;;27.77;4.75;;;;;;;18.64;100.00;100820.53;1742415;82;20123;-80
2021/06/21 01:50:21;;;;;;;23.85;4.28;;;;;;;18.61;100.00;100821.66;1742343;82;21149;-80
2021/06/21 01:53:08;;;;;;;21.12;4.83;;;;;;;18.60;100.00;100831.86;1742361;82;21015;-80
2021/06/21 01:55:38;;;;;;;22.37;4.90;;;;;;;18.62;100.00;100831.21;1741770;82;20976;-80
2021/06/21 01:58:05;;;;;;;19.15;4.22;;;;;;;18.63;100.00;100833.36;1742489;82;21043;-80
2021/06/21 02:00:31;;;;;;;23.87;4.62;;;;;;;18.63;100.00;100824.98;1742443;82;21078;-80
2021/06/21 02:02:58;;;;;;;31.30;6.60;;;;;;;18.65;100.00;100830.91;1742320;82;21113;-80
2021/06/21 02:05:25;;;;;;;27.40;5.30;;;;;;;18.67;100.00;100829.44;1742160;82;20932;-80
2021/06/21 02:07:51;;;;;;;29.85;5.47;;;;;;;18.67;100.00;100828.12;1742351;82;21073;-80
2021/06/21 02:10:20;;;;;;;38.20;5.25;;;;;;;18.69;100.00;100828.33;1742366;82;21550;-80
2021/06/21 02:12:47;;;;;;;25.17;5.28;;;;;;;18.72;100.00;100826.72;1742456;82;21008;-80
2021/06/21 02:15:14;;;;;;;17.32;4.15;;;;;;;18.73;100.00;100828.86;1742309;82;21110;-81
2021/06/21 02:17:41;;;;;;;17.77;4.55;;;;;;;18.70;100.00;100828.65;1742361;82;21569;-81
2021/06/21 02:20:08;;;;;;;26.80;4.62;;;;;;;18.69;100.00;100838.84;1742386;82;20987;-81
2021/06/21 02:22:35;;;;;;;20.60;4.62;;;;;;;18.68;100.00;100835.04;1742216;82;20972;-80
2021/06/21 02:25:05;;;;;;;23.75;5.00;;;;;;;18.63;100.00;100837.30;1742453;82;20939;-80
2021/06/21 02:27:32;;;;;;;20.68;5.03;;;;;;;18.56;100.00;100838.86;1742259;82;21065;-81
2021/06/21 02:29:59;;;;;;;19.48;4.67;;;;;;;18.51;100.00;100845.86;1742281;82;20915;-81
2021/06/21 02:32:25;;;;;;;26.95;4.65;;;;;;;18.45;100.00;100835.91;1738482;82;21562;-81
2021/06/21 02:34:52;;;;;;;22.80;4.50;;;;;;;18.42;100.00;100837.03;1732036;82;20972;-81
2021/06/21 02:37:19;;;;;;;23.98;4.72;;;;;;;18.38;100.00;100835.67;1732227;82;21054;-80
2021/06/21 02:39:46;;;;;;;25.77;5.53;;;;;;;18.34;100.00;100830.39;1732167;82;21724;-81
2021/06/21 02:42:13;;;;;;;26.23;4.67;;;;;;;18.31;100.00;100834.63;1732075;82;20940;-80
2021/06/21 02:44:39;;;;;;;14.50;4.10;;;;;;;18.29;100.00;100831.78;1732143;82;21581;-80
2021/06/21 02:47:06;;;;;;;21.80;4.03;;;;;;;18.27;100.00;100832.42;1732072;82;20980;-80
2021/06/21 02:49:34;;;;;;;28.50;4.25;;;;;;;18.25;100.00;100830.45;1731951;82;20904;-80
2021/06/21 02:52:07;;;;;;;17.55;4.50;;;;;;;18.23;100.00;100832.37;1732191;82;21117;-80
2021/06/21 02:54:45;;;;;;;19.05;3.77;;;;;;;18.21;100.00;100836.47;1731857;82;20936;-80
2021/06/21 02:57:27;;;;;;;30.88;4.30;;;;;;;18.18;100.00;100830.20;1731936;82;21067;-79
2021/06/21 02:59:54;;;;;;;16.23;3.60;;;;;;;18.20;100.00;100826.93;1711617;82;21495;-80
2021/06/21 03:02:20;;;;;;;26.62;4.70;;;;;;;18.23;100.00;100816.61;1732126;82;21054;-79
2021/06/21 03:04:47;;;;;;;20.70;4.85;;;;;;;18.23;100.00;100824.00;1709075;82;21927;-79
2021/06/21 03:07:16;;;;;;;21.30;4.45;;;;;;;18.24;100.00;100821.73;1709002;82;20984;-79
2021/06/21 03:09:47;;;;;;;26.17;4.55;;;;;;;18.27;100.00;100828.48;1731819;82;21562;-79
2021/06/21 03:12:16;;;;;;;28.98;4.75;;;;;;;18.27;100.00;100825.86;1709538;82;21011;-79
2021/06/21 03:14:47;;;;;;;30.05;5.12;;;;;;;18.29;100.00;100827.84;1709014;82;21039;-80
2021/06/21 03:17:13;;;;;;;25.92;3.95;;;;;;;18.30;100.00;100834.76;1709521;82;20889;-79
2021/06/21 03:19:42;;;;;;;20.20;4.35;;;;;;;18.29;100.00;100833.92;1732145;82;20857;-79
2021/06/21 03:22:09;;;;;;;28.27;4.80;;;;;;;18.31;100.00;100833.80;1709640;82;20940;-79
2021/06/21 03:24:35;;;;;;;30.05;4.92;;;;;;;18.32;100.00;100834.95;1731990;82;20984;-78
2021/06/21 03:27:05;;;;;;;29.32;4.58;;;;;;;18.35;100.00;100832.50;1732143;82;20940;-79
2021/06/21 03:29:32;;;;;;;32.15;6.67;;;;;;;18.38;100.00;100836.98;1731972;82;21080;-79
2021/06/21 03:31:58;;;;;;;29.77;5.50;;;;;;;18.41;100.00;100833.26;1709199;82;21235;-79
2021/06/21 03:34:25;;;;;;;25.27;5.67;;;;;;;18.44;100.00;100836.91;1710819;82;21524;-79
2021/06/21 03:36:52;;;;;;;23.65;4.33;;;;;;;18.47;100.00;100834.78;1742374;82;21026;-79
2021/06/21 03:39:18;;;;;;;27.58;5.42;;;;;;;18.53;100.00;100836.53;1742488;82;21003;-79
2021/06/21 03:41:45;;;;;;;38.53;5.95;;;;;;;18.55;100.00;100834.09;1742374;82;21143;-79
2021/06/21 03:44:12;;;;;;;37.38;5.75;;;;;;;18.59;100.00;100831.51;1742284;82;20924;-79
2021/06/21 03:46:39;;;;;;;39.53;6.15;;;;;;;18.63;100.00;100831.56;1742372;82;20876;-79
2021/06/21 03:49:06;;;;;;;24.47;5.03;;;;;;;18.68;100.00;100827.15;1742286;82;21102;-79
2021/06/21 03:51:32;;;;;;;35.35;5.92;;;;;;;18.72;100.00;100815.38;1742337;82;20976;-80
2021/06/21 03:53:59;;;;;;;28.52;6.20;;;;;;;18.76;100.00;100816.73;1742488;82;21058;-79
2021/06/21 03:56:25;;;;;;;20.12;5.83;;;;;;;18.78;100.00;100824.80;1742083;82;20971;-79
2021/06/21 03:58:52;;;;;;;33.25;6.25;;;;;;;18.84;100.00;100824.69;1742404;82;21530;-79
2021/06/21 04:01:19;;;;;;;38.42;6.42;;;;;;;18.87;100.00;100823.06;1742449;82;20940;-79
2021/06/21 04:03:45;;;;;;;32.50;7.08;;;;;;;18.91;100.00;100831.00;1742255;82;20975;-80
2021/06/21 04:06:12;;;;;;;36.08;7.85;;;;;;;18.96;100.00;100831.36;1742172;82;21994;-80
2021/06/21 04:08:38;;;;;;;35.03;5.95;;;;;;;19.01;100.00;100836.53;1742074;82;20932;-79
2021/06/21 04:11:05;;;;;;;44.85;6.92;;;;;;;19.08;100.00;100835.41;1742306;82;20908;-80
2021/06/21 04:13:33;;;;;;;30.57;5.97;;;;;;;19.16;100.00;100839.44;1742234;82;21597;-79
2021/06/21 04:16:01;;;;;;;46.00;6.78;;;;;;;19.21;100.00;100843.73;1742281;82;21051;-80
2021/06/21 04:18:27;;;;;;;40.40;6.17;;;;;;;19.27;100.00;100846.28;1742362;82;21784;-80
2021/06/21 04:20:56;;;;;;;53.05;6.87;;;;;;;19.31;100.00;100848.43;1742307;82;21011;-80
2021/06/21 04:23:23;;;;;;;47.23;7.75;;;;;;;19.37;100.00;100837.29;1742477;82;20964;-79
2021/06/21 04:25:50;;;;;;;45.43;6.55;;;;;;;19.46;100.00;100842.17;1742259;82;20987;-79
2021/06/21 04:28:16;;;;;;;41.02;6.58;;;;;;;19.57;100.00;100845.02;1742294;82;21015;-79
2021/06/21 04:30:45;;;;;;;41.10;5.70;;;;;;;19.65;100.00;100844.61;1706204;82;22306;-79
2021/06/21 04:33:11;;;;;;;44.95;6.75;;;;;;;19.71;100.00;100843.16;1737092;82;20874;-79
2021/06/21 04:35:38;;;;;;;51.40;7.20;;;;;;;19.73;100.00;100840.69;1732082;82;21456;-79
2021/06/21 04:38:04;;;;;;;49.73;7.53;;;;;;;19.76;100.00;100843.50;1732025;82;21000;-79
2021/06/21 04:40:33;;;;;;;45.95;6.72;;;;;;;19.80;100.00;100850.11;1732264;82;21439;-79
2021/06/21 04:43:00;;;;;;;47.27;7.67;;;;;;;19.87;100.00;100851.15;1732282;82;21119;-80
2021/06/21 04:45:27;;;;;;;50.33;7.00;;;;;;;19.91;100.00;100849.86;1731807;82;20988;-79
2021/06/21 04:47:53;;;;;;;44.53;6.53;;;;;;;19.95;100.00;100851.18;1731953;82;21489;-78
2021/06/21 04:50:20;;;;;;;50.30;8.38;;;;;;;20.01;100.00;100857.97;1732026;82;20991;-79
2021/06/21 04:52:49;;;;;;;44.58;7.65;;;;;;;20.07;100.00;100858.65;1732158;82;21026;-79
2021/06/21 04:55:17;;;;;;;54.15;7.35;;;;;;;20.13;100.00;100863.80;1709091;82;21080;-78
2021/06/21 04:57:43;;;;;;;54.48;7.28;;;;;;;20.17;100.00;100866.44;1732041;82;20952;-78
2021/06/21 05:00:16;;;;;;;43.85;8.33;;;;;;;20.21;100.00;100859.05;1732076;82;20940;-78
2021/06/21 05:02:43;;;;;;;50.30;7.28;;;;;;;20.27;100.00;100860.59;1732390;82;21023;-80
2021/06/21 05:05:11;;;;;;;48.20;7.05;;;;;;;20.33;100.00;100865.70;1709065;82;20893;-80
2021/06/21 05:07:38;;;;;;;57.98;7.25;;;;;;;20.35;100.00;100867.22;1731827;82;21168;-79
2021/06/21 05:10:06;;;;;;;50.63;7.20;;;;;;;20.40;100.00;100863.60;1731919;82;21500;-79
2021/06/21 05:12:35;;;;;;;47.08;6.58;;;;;;;20.46;100.00;100866.92;1731889;82;20973;-79
2021/06/21 05:15:05;;;;;;;41.75;6.30;;;;;;;20.52;100.00;100868.91;1731816;82;21022;-78
2021/06/21 05:17:31;;;;;;;45.25;7.40;;;;;;;20.59;100.00;100873.05;1731997;82;20941;-78
2021/06/21 05:19:58;;;;;;;66.62;7.25;;;;;;;20.66;100.00;100878.02;1731940;82;21125;-80
2021/06/21 05:22:25;;;;;;;60.67;8.25;;;;;;;20.73;100.00;100871.61;1732086;82;20988;-79
2021/06/21 05:24:51;;;;;;;57.03;8.25;;;;;;;20.83;100.00;100877.58;1732260;82;20968;-79
2021/06/21 05:27:18;;;;;;;47.95;6.78;;;;;;;20.92;100.00;100872.15;1731955;82;21593;-79
2021/06/21 05:29:44;;;;;;;51.90;7.67;;;;;;;21.00;100.00;100877.42;1732130;82;20960;-79
2021/06/21 05:32:11;;;;;;;47.00;6.58;;;;;;;21.07;100.00;100886.34;1732200;82;21776;-79
2021/06/21 05:34:38;;;;;;;40.30;7.40;;;;;;;21.14;100.00;100884.40;1740887;82;20892;-78
2021/06/21 05:37:06;;;;;;;58.80;8.00;;;;;;;21.19;100.00;100883.43;1742494;82;20940;-79
2021/06/21 05:39:32;;;;;;;55.52;7.45;;;;;;;21.25;100.00;100884.09;1742427;82;21063;-79
2021/06/21 05:41:59;;;;;;;50.50;8.53;;;;;;;21.33;100.00;100888.87;1742488;82;21066;-79
2021/06/21 05:44:26;;;;;;;51.53;6.55;;;;;;;21.39;100.00;100885.56;1742498;82;21755;-79
2021/06/21 05:46:53;;;;;;;51.40;7.12;;;;;;;21.45;100.00;100889.34;1742205;82;21043;-79
2021/06/21 05:49:20;;;;;;;50.33;6.85;;;;;;;21.52;100.00;100893.81;1742344;82;21046;-78
2021/06/21 05:51:47;;;;;;;49.58;7.22;;;;;;;21.58;100.00;100893.14;1742173;82;21562;-79
2021/06/21 05:54:13;;;;;;;45.20;7.33;;;;;;;21.59;100.00;100892.16;1742525;82;21058;-79
2021/06/21 05:56:40;;;;;;;44.03;6.37;;;;;;;21.59;100.00;100890.84;1742180;82;21544;-78
2021/06/21 05:59:06;;;;;;;44.67;6.85;;;;;;;21.60;100.00;100889.83;1742146;82;20972;-78
2021/06/21 06:01:33;;;;;;;42.70;7.08;;;;;;;21.63;100.00;100900.58;1742308;82;21027;-79
2021/06/21 06:04:00;;;;;;;50.92;7.33;;;;;;;21.65;100.00;100898.59;1742606;82;20987;-79
2021/06/21 06:06:26;;;;;;;43.42;7.40;;;;;;;21.67;100.00;100892.62;1742568;82;21275;-79
2021/06/21 06:08:53;;;;;;;47.10;7.42;;;;;;;21.72;100.00;100895.61;1742563;82;21186;-80
2021/06/21 06:11:20;;;;;;;48.45;6.87;;;;;;;21.74;100.00;100894.11;1742520;82;20893;-78
2021/06/21 06:13:47;;;;;;;43.28;7.97;;;;;;;21.73;100.00;100893.28;1742540;82;21046;-78
2021/06/21 06:16:14;;;;;;;41.02;6.53;;;;;;;21.75;100.00;100892.64;1742636;82;20932;-79
2021/06/21 06:18:44;;;;;;;40.43;7.58;;;;;;;21.80;100.00;100880.23;1742464;82;21051;-81
2021/06/21 06:21:17;;;;;;;47.35;7.90;;;;;;;21.88;100.00;100885.52;1742314;82;20983;-78
2021/06/21 06:23:45;;;;;;;52.43;9.10;;;;;;;21.93;100.00;100889.81;1712409;82;21541;-78
2021/06/21 06:26:12;;;;;;;55.90;8.30;;;;;;;22.01;100.00;100886.67;1742577;82;20959;-79
2021/06/21 06:28:39;;;;;;;51.65;7.85;;;;;;;22.10;100.00;100890.94;1742467;82;21039;-80
2021/06/21 06:31:06;;;;;;;48.28;7.42;;;;;;;22.16;100.00;100888.10;1742643;82;21027;-79
2021/06/21 06:33:33;;;;;;;44.23;7.92;;;;;;;22.23;100.00;100890.40;1739456;82;21099;-77
2021/06/21 06:36:00;;;;;;;49.53;7.65;;;;;;;22.29;100.00;100891.03;1732102;82;20936;-78
2021/06/21 06:38:27;;;;;;;34.63;6.97;;;;;;;22.35;100.00;100890.84;1732354;82;21060;-78
2021/06/21 06:40:54;;;;;;;42.83;7.72;;;;;;;22.41;100.00;100888.83;1732134;82;20999;-77
2021/06/21 06:43:21;;;;;;;42.73;7.00;;;;;;;22.49;100.00;100891.45;1732209;82;22382;-76
2021/06/21 06:45:49;;;;;;;47.40;8.25;;;;;;;22.55;100.00;100888.11;1732267;82;20889;-76
2021/06/21 06:48:16;;;;;;;52.45;7.60;;;;;;;22.61;100.00;100887.41;1732352;82;20932;-78
2021/06/21 06:50:42;;;;;;;47.10;7.70;;;;;;;22.59;100.00;100883.61;1732173;82;21562;-77
2021/06/21 06:53:09;;;;;;;46.42;7.85;;;;;;;22.60;100.00;100887.08;1732122;82;20949;-77
2021/06/21 06:58:21;;;;;;;64.27;8.45;;;;;;;22.64;100.00;100885.74;1732150;82;21135;-77
2021/06/21 07:00:48;;;;;;;47.83;7.37;;;;;;;22.66;100.00;100889.89;1732332;82;20924;-77
2021/06/21 07:03:14;;;;;;;48.45;6.65;;;;;;;22.65;100.00;100886.08;1732117;82;21495;-77
2021/06/21 07:05:42;;;;;;;44.83;7.75;;;;;;;;;;1732041;82;21012;-76
2021/06/21 07:08:09;;;;;;;43.28;5.55;;;;;;;22.66;100.00;100895.18;1739649;82;20881;-76
2021/06/21 07:10:36;;;;;;;49.38;7.47;;;;;;;22.69;100.00;100891.36;1710991;82;21630;-77
2021/06/21 07:13:02;;;;;;;44.10;7.90;;;;;;;22.72;100.00;100894.97;1739492;82;21542;-76
2021/06/21 07:15:29;;;;;;;39.53;6.95;;;;;;;22.79;100.00;100887.16;1739271;82;21063;-77
2021/06/21 07:17:55;;;;;;;49.63;6.87;;;;;;;22.87;100.00;100889.78;1739437;81;20948;-77
2021/06/21 07:20:23;;;;;;;39.58;7.55;;;;;;;22.98;100.00;100897.30;1739642;82;21007;-74
2021/06/21 07:22:50;;;;;;;42.83;6.17;;;;;;;23.10;100.00;100903.33;1739747;82;21565;-76
2021/06/21 07:25:17;;;;;;;48.60;7.00;;;;;;;23.22;100.00;100896.31;1732340;82;20889;-76
2021/06/21 07:27:43;;;;;;;39.05;7.53;;;;;;;23.32;100.00;100890.28;1732251;82;21014;-79
2021/06/21 07:30:11;;;;;;;40.63;7.35;;;;;;;23.40;100.00;100899.50;1732257;82;21569;-81
2021/06/21 07:32:38;;;;;;;48.63;7.85;;;;;;;23.38;100.00;100894.86;1709397;82;20976;-78
2021/06/21 07:35:06;;;;;;;55.58;7.65;;;;;;;23.35;100.00;100891.25;1739832;82;21923;-77
2021/06/21 07:37:33;;;;;;;47.33;6.50;;;;;;;23.35;100.00;100894.73;1742099;82;21031;-77
2021/06/21 07:39:59;;;;;;;45.55;7.85;;;;;;;23.38;100.00;100897.52;1742482;82;20926;-78
2021/06/21 07:42:27;;;;;;;51.90;7.75;;;;;;;23.46;100.00;100902.76;1742313;82;21045;-77
2021/06/21 07:44:54;;;;;;;47.25;7.47;;;;;;;23.56;100.00;100900.69;1742443;82;21012;-77
2021/06/21 07:47:21;;;;;;;38.73;6.85;;;;;;;23.72;100.00;100908.48;1742244;82;21094;-77
2021/06/21 07:49:48;;;;;;;47.10;7.25;;;;;;;23.86;100.00;100904.22;1742314;82;20936;-76
2021/06/21 07:52:15;;;;;;;36.23;6.78;;;;;;;23.98;100.00;100903.59;1742471;82;20995;-77
2021/06/21 07:54:42;;;;;;;35.58;7.67;;;;;;;24.07;100.00;100905.14;1742242;82;21036;-76
2021/06/21 07:57:09;;;;;;;47.33;7.03;;;;;;;24.18;100.00;100903.91;1742306;82;21015;-77
2021/06/21 07:59:35;;;;;;;43.55;7.33;;;;;;;24.31;100.00;100907.23;1742359;82;21114;-78
2021/06/21 08:02:02;;;;;;;32.50;6.58;;;;;;;24.36;100.00;100904.34;1742444;82;21390;-78
2021/06/21 08:04:29;;;;;;;47.88;7.55;;;;;;;24.28;100.00;100908.93;1742453;82;20900;-77
2021/06/21 08:06:57;;;;;;;45.60;7.22;;;;;;;24.19;100.00;100914.31;1742316;82;20947;-79
2021/06/21 08:09:24;;;;;;;48.95;6.65;;;;;;;24.14;100.00;100912.73;1742359;82;21019;-76
2021/06/21 08:11:51;;;;;;;34.43;6.45;;;;;;;24.13;100.00;100915.05;1742341;82;21196;-79
2021/06/21 08:14:18;;;;;;;38.88;6.08;;;;;;;24.10;100.00;100918.53;1742342;82;20948;-75
2021/06/21 08:16:45;;;;;;;36.15;6.22;;;;;;;24.03;100.00;100918.44;1742476;82;21490;-77
2021/06/21 08:19:12;;;;;;;36.73;7.10;;;;;;;23.98;100.00;100923.97;1742450;82;21364;-79
2021/06/21 08:21:40;;;;;;;35.65;7.28;;;;;;;23.88;100.00;100923.41;1742493;82;20880;-82
2021/06/21 08:24:10;;;;;;;39.30;7.17;;;;;;;23.70;100.00;100927.23;1742372;82;21762;-81
2021/06/21 08:26:37;;;;;;;39.30;7.62;;;;;;;23.61;100.00;100924.31;1742295;82;21040;-79
2021/06/21 08:29:04;;;;;;;38.58;6.72;;;;;;;23.59;100.00;100926.82;1742255;82;21546;-77
2021/06/21 08:31:31;;;;;;;38.78;6.40;;;;;;;23.51;100.00;100925.58;1742093;82;20904;-76
2021/06/21 08:33:58;;;;;;;31.00;6.55;;;;;;;23.47;100.00;100923.78;1740397;82;21405;-78
2021/06/21 08:36:25;;;;;;;29.48;6.12;;;;;;;23.48;100.00;100925.44;1731976;82;21786;-76
2021/06/21 08:38:53;;;;;;;41.88;7.55;;;;;;;23.54;100.00;100930.03;1732037;82;20988;-78
2021/06/21 08:41:20;;;;;;;45.30;7.42;;;;;;;23.66;100.00;100929.91;1732146;82;20975;-76
2021/06/21 08:43:48;;;;;;;42.90;8.13;;;;;;;23.80;100.00;100935.42;1732083;82;20956;-75
2021/06/21 08:46:18;;;;;;;35.48;6.90;;;;;;;23.92;100.00;100932.16;1732100;82;21079;-76
2021/06/21 08:48:47;;;;;;;44.95;7.28;;;;;;;24.06;100.00;100929.20;1732089;82;21768;-79
2021/06/21 08:51:14;;;;;;;32.90;7.53;;;;;;;24.25;100.00;100928.66;1732142;82;21483;-80
2021/06/21 08:53:42;;;;;;;33.98;6.03;;;;;;;24.48;100.00;100932.04;1732198;82;21432;-79
2021/06/21 08:56:10;;;;;;;40.88;7.35;;;;;;;24.71;100.00;100934.07;1732102;82;20949;-78
2021/06/21 08:58:39;;;;;;;40.05;7.20;;;;;;;24.83;100.00;100933.60;1732123;82;21431;-75
2021/06/21 09:01:07;;;;;;;45.43;7.78;;;;;;;24.87;100.00;100937.04;1732257;82;21495;-76
2021/06/21 09:03:34;;;;;;;36.88;6.70;;;;;;;24.93;100.00;100937.61;1732120;82;21024;-79
2021/06/21 09:06:01;;;;;;;36.75;7.03;;;;;;;25.04;100.00;100934.48;1732112;82;20944;-81
2021/06/21 09:08:28;;;;;;;30.85;6.62;;;;;;;24.98;96.12;100931.25;1731897;82;21007;-87
2021/06/21 09:10:54;;;;;;;41.02;7.05;;;;;;;24.79;96.49;100944.27;1732620;82;20976;-82
2021/06/21 09:13:23;;;;;;;39.03;6.42;;;;;;;24.68;99.75;100946.89;1732838;82;20968;-84
2021/06/21 09:15:53;;;;;;;34.00;5.80;;;;;;;24.69;100.00;100953.85;1732615;82;20928;-81
2021/06/21 09:18:34;;;;;;;39.15;6.95;;;;;;;24.71;100.00;100949.17;1732845;82;21159;-82
2021/06/21 09:21:20;;;;;;;38.00;6.12;;;;;;;24.74;100.00;100945.64;1732353;82;20987;-81
2021/06/21 09:23:48;;;;;;;30.40;5.47;;;;;;;24.78;100.00;100938.63;1732863;82;20948;-80
2021/06/21 09:26:31;;;;;;;33.88;6.83;;;;;;;24.71;96.52;100943.36;1705945;82;22026;-81
2021/06/21 09:29:00;;;;;;;37.00;7.17;;;;;;;24.67;96.78;100946.56;1732288;82;20881;-86
2021/06/21 09:31:27;;;;;;;30.77;5.15;;;;;;;24.58;96.75;100944.52;1732223;82;21598;-83
2021/06/21 09:34:15;;;;;;;39.13;5.87;;;;;;;24.50;98.27;100945.14;1732462;82;20901;-75
2021/06/21 09:36:41;;;;;;;37.28;7.20;;;;;;;24.47;99.93;100949.48;1745145;82;20923;-80
2021/06/21 09:39:27;;;;;;;38.80;7.00;;;;;;;24.43;100.00;100947.70;1745171;82;21140;-82
2021/06/21 09:42:24;;;;;;;31.25;5.83;;;;;;;24.45;100.00;100947.50;1745010;82;21015;-81
2021/06/21 09:44:57;;;;;;;28.62;5.65;;;;;;;24.50;100.00;100940.66;1745177;82;21030;-81
2021/06/21 09:47:28;;;;;;;36.53;5.70;;;;;;;24.56;100.00;100939.09;1745224;82;21017;-82
2021/06/21 09:50:24;;;;;;;40.45;6.90;;;;;;;24.63;100.00;100942.66;1745151;82;20995;-86
2021/06/21 09:53:01;;;;;;;26.60;6.15;;;;;;;24.68;100.00;100941.58;1745107;82;39990;-81
2021/06/21 09:55:41;;;;;;;31.42;5.75;;;;;;;24.70;100.00;100943.03;1744931;82;21436;-81
2021/06/21 09:58:14;;;;;;;27.30;6.08;;;;;;;24.73;100.00;100932.55;1745119;82;20896;-82
2021/06/21 10:00:49;;;;;;;32.50;5.85;;;;;;;24.80;100.00;100931.30;1745057;82;22285;-88
2021/06/21 10:03:24;;;;;;;24.90;5.78;;;;;;;24.88;100.00;100925.92;1745113;82;21015;-83
2021/06/21 10:06:12;;;;;;;25.30;5.62;;;;;;;25.07;100.00;100917.34;1745227;82;21118;-83
2021/06/21 10:08:45;;;;;;;36.98;6.40;;;;;;;25.34;99.85;100927.70;1744895;82;21431;-83
2021/06/21 10:11:37;;;;;;;25.68;5.58;;;;;;;25.59;97.25;100929.80;1744972;82;20980;-81
2021/06/21 10:14:07;;;;;;;32.33;6.47;;;;;;;25.75;94.86;100929.52;1745106;82;20912;-80
2021/06/21 10:16:35;;;;;;;41.65;5.97;;;;;;;25.90;93.85;100923.28;1745282;82;21051;-80
2021/06/21 10:19:03;;;;;;;38.00;6.08;;;;;;;26.02;92.73;100924.38;1745056;82;21081;-81
2021/06/21 10:21:31;;;;;;;32.75;6.53;;;;;;;26.03;91.90;100927.37;1744930;82;20924;-87
2021/06/21 10:23:59;;;;;;;24.72;5.50;;;;;;;26.02;92.05;100927.88;1745176;82;20984;-77
2021/06/21 10:26:26;;;;;;;26.80;6.03;;;;;;;26.05;92.24;100915.51;1745004;82;20948;-80
2021/06/21 10:28:53;;;;;;;25.52;5.37;;;;;;;26.05;91.81;100923.99;1745094;82;21083;-83
2021/06/21 10:31:24;;;;;;;21.68;5.37;;;;;;;26.11;91.27;100924.53;1745071;82;21903;-76
2021/06/21 10:33:51;;;;;;;29.45;5.22;;;;;;;26.24;91.50;100924.65;1744847;82;21046;-81
2021/06/21 10:36:18;;;;;;;27.67;5.78;;;;;;;26.41;89.01;100921.16;1721678;82;22270;-80
2021/06/21 10:38:45;;;;;;;27.95;4.97;;;;;;;26.54;85.73;100919.89;1745139;82;20941;-81
2021/06/21 10:41:12;;;;;;;25.17;4.92;;;;;;;26.72;86.75;100914.83;1722191;82;20886;-81
2021/06/21 10:43:45;;;;;;;22.75;4.72;;;;;;;26.87;84.56;100920.83;1744916;82;21908;-76
2021/06/21 10:46:26;;;;;;;22.98;4.78;;;;;;;26.96;82.25;100921.49;1744711;82;20886;-76
2021/06/21 10:49:07;;;;;;;21.45;4.95;;;;;;;27.04;81.74;100922.63;1745348;82;20952;-76
2021/06/21 10:51:41;;;;;;;25.68;4.62;;;;;;;27.08;81.66;100926.02;1745333;82;21040;-77
2021/06/21 10:54:22;;;;;;;19.73;4.45;;;;;;;27.08;81.02;100926.53;1745076;82;21097;-79
2021/06/21 10:56:56;;;;;;;22.00;4.70;;;;;;;27.01;79.60;100922.52;1745062;82;21079;-79
2021/06/21 10:59:25;;;;;;;13.85;4.17;;;;;;;26.94;79.52;100918.19;1744965;82;21049;-76
2021/06/21 11:01:56;;;;;;;16.00;3.95;;;;;;;26.85;80.14;100914.89;1745003;82;20999;-77
2021/06/21 11:04:38;;;;;;;18.25;4.53;;;;;;;26.75;79.38;100905.11;1745130;82;20939;-76
2021/06/21 11:07:21;;;;;;;24.87;4.55;;;;;;;26.78;82.04;100901.53;1745247;82;21613;-78
2021/06/21 11:09:55;;;;;;;20.55;4.90;;;;;;;26.87;81.07;100901.39;1744947;82;21139;-78
2021/06/21 11:12:33;;;;;;;15.65;4.12;;;;;;;26.85;79.42;100898.09;1744778;82;21572;-83
2021/06/21 11:15:12;;;;;;;18.27;4.53;;;;;;;26.83;80.20;100895.65;1744926;82;20904;-82
2021/06/21 11:17:54;;;;;;;21.73;4.72;;;;;;;26.74;79.40;100896.29;1744238;82;20983;-77
2021/06/21 11:20:37;;;;;;;20.27;5.03;;;;;;;26.64;80.81;100896.38;1745051;82;21110;-76
2021/06/21 11:23:08;;;;;;;21.05;5.10;;;;;;;26.57;82.46;100896.86;1744529;82;21924;-76
2021/06/21 11:25:41;;;;;;;21.05;5.42;;;;;;;26.43;82.25;100895.98;1744138;82;20940;-80